Time;durP1;ratioP1;P1;durP2;ratioP2;P2;SDS_P1;SDS_P2;PMS_P1;PMS_P2;Temp;Humidity;BMP_temperature;BMP_pressure;BME280_temperature;BME280_humidity;BME280_pressure;Samples;Min_cycle;Max_cycle;Signal;HPM_P1;HPM_P2
2023/02/20 00:03:46;;;;;;;;;;;;;;;-0.98;87.49;99781.56;450098;1248;144041;-66
2023/02/20 00:13:52;;;;;;;8.50;4.40;;;;;;;-0.89;87.21;99785.56;437488;1250;128288;-66
2023/02/20 00:23:57;;;;;;;;;;;;;;;-0.83;87.37;99773.45;436842;1252;142936;-65
2023/02/20 00:34:03;;;;;;;7.40;3.70;;;;;;;-0.82;87.58;99778.94;439548;1249;133464;-66
2023/02/20 00:44:08;;;;;;;;;;;;;;;-0.80;87.48;99781.66;434060;1250;141655;-66
2023/02/20 00:54:14;;;;;;;7.80;4.40;;;;;;;-0.81;87.40;99773.77;448959;1249;129420;-67
2023/02/20 01:04:21;;;;;;;8.10;4.30;;;;;;;-0.83;87.29;99783.59;450327;1248;143072;-67
2023/02/20 01:14:26;;;;;;;;;;;;;;;-0.86;87.04;99774.19;451097;1249;142051;-66
2023/02/20 01:24:32;;;;;;;11.00;4.70;;;;;;;-0.93;87.11;99772.23;451320;1249;186595;-66
2023/02/20 01:34:38;;;;;;;10.70;4.70;;;;;;;-1.02;87.13;99765.29;450596;1248;200283;-66
2023/02/20 01:44:44;;;;;;;8.70;4.10;;;;;;;-1.08;87.16;99751.80;450955;1249;141446;-66
2023/02/20 01:54:56;;;;;;;7.60;4.00;;;;;;;-1.17;87.47;99748.48;450344;1250;143106;-66
2023/02/20 02:05:02;;;;;;;7.60;3.10;;;;;;;-1.19;87.27;99748.67;450942;1249;142950;-65
2023/02/20 02:15:15;;;;;;;6.60;3.60;;;;;;;-1.12;87.46;99737.41;450891;1249;143197;-65
2023/02/20 02:25:37;;;;;;;6.80;2.80;;;;;;;-1.01;86.90;99743.79;450144;1250;142411;-65
2023/02/20 02:36:14;;;;;;;7.10;3.10;;;;;;;-0.92;86.70;99726.48;450869;1249;141978;-66
2023/02/20 02:46:27;;;;;;;5.50;2.80;;;;;;;-0.86;86.21;99692.17;450114;1249;141716;-67
2023/02/20 02:56:37;;;;;;;4.80;2.10;;;;;;;-0.86;85.78;99697.84;450928;1249;145103;-66
2023/02/20 03:06:46;;;;;;;5.30;2.40;;;;;;;-0.95;85.67;99684.24;450116;1249;185609;-66
2023/02/20 03:16:56;;;;;;;3.70;2.20;;;;;;;-1.04;85.44;99685.58;448820;1249;188375;-66
2023/02/20 03:27:03;;;;;;;3.30;2.10;;;;;;;-1.09;85.35;99681.20;445497;1249;142319;-66
2023/02/20 03:47:43;;;;;;;4.70;2.50;;;;;;;-1.00;86.24;99661.11;450886;1250;144054;-67
2023/02/20 03:57:53;;;;;;;4.70;1.30;;;;;;;-0.94;86.75;99665.31;450111;1249;141799;-66
2023/02/20 04:08:05;;;;;;;3.30;2.10;;;;;;;-0.76;87.51;99646.14;451088;1249;143378;-67
2023/02/20 04:18:13;;;;;;;2.50;1.90;;;;;;;-0.63;87.51;99634.73;445498;1249;142020;-65
2023/02/20 04:28:20;;;;;;;6.90;2.00;;;;;;;-0.55;87.75;99626.00;450280;1249;142450;-66
2023/02/20 04:38:27;;;;;;;4.90;1.50;;;;;;;-0.48;87.81;99617.98;451117;1251;142851;-66
2023/02/20 04:48:32;;;;;;;2.10;1.60;;;;;;;-0.38;87.87;99593.19;451121;1250;198117;-66
2023/02/20 04:58:38;;;;;;;3.30;1.40;;;;;;;-0.31;87.82;99594.77;450529;1249;207456;-66
2023/02/20 05:08:44;;;;;;;8.60;2.10;;;;;;;-0.24;88.00;99589.83;451176;1249;184068;-66
2023/02/20 05:18:50;;;;;;;2.80;1.10;;;;;;;-0.23;88.20;99585.85;445275;1252;143363;-67
2023/02/20 05:28:55;;;;;;;4.10;1.60;;;;;;;-0.28;88.38;99573.56;441587;1249;141545;-66
2023/02/20 05:39:01;;;;;;;3.10;1.60;;;;;;;-0.37;88.57;99565.48;451173;1249;142555;-66
2023/02/20 05:49:07;;;;;;;7.80;2.40;;;;;;;-0.44;88.76;99560.96;450381;1249;142873;-66
2023/02/20 05:59:13;;;;;;;3.10;1.70;;;;;;;-0.45;89.08;99551.17;451138;1252;142326;-67
2023/02/20 06:09:19;;;;;;;4.40;2.20;;;;;;;-0.38;89.21;99537.64;451267;1250;142398;-67
2023/02/20 06:19:26;;;;;;;6.10;2.30;;;;;;;-0.25;89.54;99535.14;450413;1249;142513;-66
2023/02/20 06:29:30;;;;;;;;;;;;;;;-0.09;89.83;99520.69;451254;1249;142121;-66
2023/02/20 06:39:36;;;;;;;9.20;3.20;;;;;;;0.06;89.79;99503.32;451454;1250;128468;-66
2023/02/20 06:49:42;;;;;;;4.60;2.50;;;;;;;0.28;89.84;99504.58;450709;1249;209854;-67
2023/02/20 06:59:48;;;;;;;5.00;3.50;;;;;;;0.49;90.11;99482.71;451264;1250;145764;-67
2023/02/20 07:09:54;;;;;;;5.20;3.10;;;;;;;0.76;89.96;99472.41;450416;1250;200705;-65
2023/02/20 07:20:00;;;;;;;7.10;3.90;;;;;;;1.03;89.80;99469.30;451034;1251;142126;-65
2023/02/20 07:30:06;;;;;;;6.40;3.60;;;;;;;1.22;89.57;99457.08;451355;1251;142739;-65
2023/02/20 07:40:13;;;;;;;5.00;2.60;;;;;;;1.65;89.54;99438.24;450542;1248;142450;-66
2023/02/20 07:50:20;;;;;;;10.20;4.40;;;;;;;2.04;88.87;99429.64;440627;1250;141441;-66
2023/02/20 08:00:27;;;;;;;6.80;4.10;;;;;;;2.15;88.47;99406.34;451368;1249;142079;-65
2023/02/20 08:10:33;;;;;;;6.30;4.30;;;;;;;2.15;88.86;99394.23;450608;1250;185914;-66
2023/02/20 08:20:38;;;;;;;9.70;4.60;;;;;;;1.94;88.90;99381.29;436057;1253;142054;-65
2023/02/20 08:30:44;;;;;;;10.80;5.80;;;;;;;2.03;88.84;99354.75;434683;1250;141774;-66
2023/02/20 08:40:50;;;;;;;5.10;3.60;;;;;;;2.10;88.86;99334.66;439126;1248;144165;-66
2023/02/20 08:50:56;;;;;;;10.80;5.10;;;;;;;2.20;89.26;99319.65;451415;1248;142140;-66
2023/02/20 09:01:02;;;;;;;6.00;4.40;;;;;;;2.34;89.82;99313.30;450592;1249;142433;-66
2023/02/20 09:11:09;;;;;;;12.20;6.30;;;;;;;2.42;90.22;99303.02;451368;1248;142558;-67
2023/02/20 09:21:17;;;;;;;7.80;3.60;;;;;;;2.30;90.75;99279.41;451255;1247;142562;-65
2023/02/20 09:31:23;;;;;;;8.40;5.20;;;;;;;2.12;91.89;99266.89;443189;1247;143107;-66
2023/02/20 09:41:46;;;;;;;10.60;5.20;;;;;;;2.05;92.57;99247.08;451461;1248;141940;-67
2023/02/20 09:51:58;;;;;;;8.80;5.20;;;;;;;2.03;93.33;99202.10;450621;1249;143059;-66
2023/02/20 10:02:16;;;;;;;9.50;5.30;;;;;;;2.04;93.87;99175.64;451354;1247;143229;-66
2023/02/20 10:12:30;;;;;;;10.60;6.50;;;;;;;2.05;94.46;99163.02;451546;1249;143899;-67
2023/02/20 10:22:42;;;;;;;9.40;6.10;;;;;;;2.07;95.27;99143.43;443105;1249;143719;-66
2023/02/20 10:32:52;;;;;;;12.50;7.80;;;;;;;2.22;96.29;99102.65;444607;1249;143026;-67
2023/02/20 10:43:02;;;;;;;8.80;6.40;;;;;;;2.33;96.60;99065.09;450566;1248;144988;-67
2023/02/20 10:53:18;;;;;;;9.10;7.30;;;;;;;2.50;97.38;99035.80;451032;1248;142588;-67
2023/02/20 11:03:30;;;;;;;10.90;6.40;;;;;;;2.70;97.78;99006.98;442397;1248;141662;-65
2023/02/20 11:13:36;;;;;;;9.30;6.00;;;;;;;2.82;98.42;98973.14;445364;1248;144407;-66
2023/02/20 11:23:43;;;;;;;10.40;6.90;;;;;;;2.92;98.90;98958.90;451323;1247;141360;-67
2023/02/20 11:33:49;;;;;;;8.70;7.40;;;;;;;3.01;99.57;98908.89;450475;1249;201377;-66
2023/02/20 11:44:29;;;;;;;10.60;7.70;;;;;;;3.23;99.99;98879.56;451169;1248;141955;-66
2023/02/20 11:54:35;;;;;;;10.00;7.40;;;;;;;3.58;100.00;98849.55;451213;1248;144903;-65
2023/02/20 12:04:42;;;;;;;7.70;6.70;;;;;;;3.78;100.00;98812.61;449123;1249;195783;-67
2023/02/20 12:14:49;;;;;;;9.10;7.00;;;;;;;3.99;100.00;98767.98;450809;1249;142664;-66
2023/02/20 12:25:15;;;;;;;7.60;6.60;;;;;;;4.25;100.00;98727.70;450274;1249;142471;-67
2023/02/20 12:35:33;;;;;;;11.90;10.20;;;;;;;4.47;100.00;98684.09;450912;1249;142891;-65
2023/02/20 12:45:46;;;;;;;10.80;7.80;;;;;;;4.75;99.98;98652.59;445141;1249;142422;-66
2023/02/20 12:56:05;;;;;;;8.00;6.30;;;;;;;5.03;99.64;98625.90;445921;1249;141707;-66
2023/02/20 13:06:17;;;;;;;9.10;6.70;;;;;;;5.36;99.11;98609.50;448798;1249;140843;-66
2023/02/20 13:16:27;;;;;;;6.80;5.40;;;;;;;5.64;98.20;98585.12;436350;1250;141628;-67
2023/02/20 13:26:52;;;;;;;6.50;5.00;;;;;;;5.85;96.88;98576.39;450626;1249;142489;-66
2023/02/20 13:36:58;;;;;;;5.90;4.80;;;;;;;5.94;95.95;98574.98;450157;1249;142783;-66
2023/02/20 13:47:28;;;;;;;7.60;5.10;;;;;;;5.98;94.88;98563.77;441752;1251;142010;-67
2023/02/20 13:57:42;;;;;;;4.60;3.90;;;;;;;6.00;94.13;98549.23;450822;1249;142152;-67
2023/02/20 14:07:49;;;;;;;6.90;4.70;;;;;;;6.03;93.82;98553.75;449904;1249;140849;-66
2023/02/20 14:17:59;;;;;;;4.70;4.20;;;;;;;6.10;93.42;98546.27;450633;1249;141025;-65
2023/02/20 14:28:15;;;;;;;4.70;3.20;;;;;;;6.21;92.88;98523.80;449713;1249;141608;-65
2023/02/20 14:38:34;;;;;;;5.20;3.10;;;;;;;6.35;92.27;98522.94;447398;1249;194027;-66
2023/02/20 14:48:41;;;;;;;4.10;2.50;;;;;;;6.51;91.59;98511.48;448141;1249;141109;-68
2023/02/20 14:58:47;;;;;;;3.70;3.10;;;;;;;6.70;90.62;98518.98;450471;1249;141165;-67
2023/02/20 15:08:58;;;;;;;2.90;2.70;;;;;;;6.81;90.16;98521.08;451074;1249;142135;-67
2023/02/20 15:19:22;;;;;;;5.70;4.40;;;;;;;6.88;89.77;98504.92;442834;1249;183961;-68
2023/02/20 15:29:29;;;;;;;5.60;4.10;;;;;;;6.93;89.84;98502.20;451005;1249;142924;-65
2023/02/20 15:39:41;;;;;;;4.00;2.70;;;;;;;6.94;89.93;98486.80;451061;1249;141357;-67
2023/02/20 15:49:48;;;;;;;6.10;4.20;;;;;;;6.93;90.45;98495.41;450556;1249;142207;-66
2023/02/20 15:59:54;;;;;;;4.20;3.30;;;;;;;6.90;90.81;98491.57;451011;1249;141776;-66
2023/02/20 16:10:00;;;;;;;3.50;2.70;;;;;;;6.89;90.87;98504.20;450230;1249;141218;-66
2023/02/20 16:20:15;;;;;;;4.20;2.40;;;;;;;6.90;90.93;98505.02;451135;1248;143284;-66
2023/02/20 16:30:26;;;;;;;4.70;2.90;;;;;;;6.93;90.84;98510.54;440592;1248;143069;-65
2023/02/20 16:40:39;;;;;;;4.50;2.70;;;;;;;6.96;90.74;98500.25;450410;1249;142075;-65
2023/02/20 16:50:47;;;;;;;5.90;3.50;;;;;;;7.01;90.76;98493.14;451027;1249;154788;-67
2023/02/20 17:00:53;;;;;;;3.20;2.20;;;;;;;7.09;90.73;98493.13;443479;1248;141678;-66
2023/02/20 17:11:02;;;;;;;4.80;3.00;;;;;;;7.12;90.71;98484.20;435979;1252;142197;-66
2023/02/20 17:21:09;;;;;;;4.20;3.20;;;;;;;7.14;90.84;98483.92;448273;1248;144643;-65
2023/02/20 17:31:15;;;;;;;3.90;3.00;;;;;;;7.16;90.73;98474.73;449957;1249;143469;-67
2023/02/20 17:41:21;;;;;;;3.60;3.00;;;;;;;7.17;90.64;98477.43;434520;1252;142109;-65
2023/02/20 17:51:27;;;;;;;4.60;4.10;;;;;;;7.17;90.64;98480.04;433755;1252;141776;-65
2023/02/20 18:01:33;;;;;;;5.00;3.40;;;;;;;7.19;90.63;98474.14;450085;1248;142340;-66
2023/02/20 18:11:41;;;;;;;3.90;2.50;;;;;;;7.22;90.75;98461.12;450979;1249;142349;-65
2023/02/20 18:21:48;;;;;;;;;;;;;;;7.27;90.50;98472.41;450262;1249;142950;-66
2023/02/20 18:31:55;;;;;;;5.50;4.40;;;;;;;7.32;90.34;98469.70;441518;1249;128877;-65
2023/02/20 18:41:59;;;;;;;;;;;;;;;7.32;90.33;98461.14;449891;1249;141577;-65
2023/02/20 18:52:06;;;;;;;5.40;3.40;;;;;;;7.33;90.29;98447.16;450325;1249;128616;-67
2023/02/20 19:02:14;;;;;;;7.30;4.10;;;;;;;7.31;90.45;98441.33;448675;1250;142092;-66
2023/02/20 19:12:20;;;;;;;4.80;3.90;;;;;;;7.30;91.02;98427.98;450959;1249;143363;-66
2023/02/20 19:22:27;;;;;;;13.40;5.90;;;;;;;7.26;91.30;98415.37;447697;1249;142001;-65
2023/02/20 19:32:33;;;;;;;4.60;4.20;;;;;;;7.21;91.94;98409.62;450912;1249;142339;-65
2023/02/20 19:42:40;;;;;;;7.00;4.30;;;;;;;7.16;92.31;98406.86;450167;1250;142699;-69
2023/02/20 19:52:46;;;;;;;6.30;5.00;;;;;;;7.11;92.77;98414.17;451057;1249;143302;-66
2023/02/20 20:02:52;;;;;;;8.40;5.50;;;;;;;7.03;93.76;98417.13;451003;1249;142160;-67
2023/02/20 20:12:58;;;;;;;6.30;5.10;;;;;;;6.83;95.23;98421.25;450163;1249;142978;-67
2023/02/20 20:23:05;;;;;;;7.90;5.00;;;;;;;6.57;96.65;98422.30;445878;1250;142597;-66
2023/02/20 20:33:11;;;;;;;6.30;4.40;;;;;;;6.44;97.24;98430.20;449064;1252;141966;-66
2023/02/20 20:43:17;;;;;;;7.90;6.20;;;;;;;6.45;97.87;98430.69;434394;1252;142338;-66
2023/02/20 20:53:23;;;;;;;6.00;5.00;;;;;;;6.44;98.22;98442.38;437554;1250;142904;-66
2023/02/20 21:03:29;;;;;;;8.10;5.70;;;;;;;6.45;98.63;98446.50;448818;1249;143849;-65
2023/02/20 21:13:35;;;;;;;9.60;6.60;;;;;;;6.41;99.33;98448.72;434008;1250;142266;-66
2023/02/20 21:23:43;;;;;;;8.00;6.30;;;;;;;6.36;99.68;98451.45;438714;1249;142002;-65
2023/02/20 21:33:51;;;;;;;8.20;7.10;;;;;;;6.36;99.66;98449.02;436967;1250;141927;-65
2023/02/20 21:54:24;;;;;;;9.70;7.70;;;;;;;6.32;100.00;98436.79;450986;1249;143812;-66
